createdAt,value
2022-11-05T00:00:09.570Z,6.50
2022-11-05T00:02:54.524Z,6.48
2022-11-05T00:05:39.795Z,6.50
2022-11-05T00:08:25.099Z,6.50
2022-11-05T00:10:51.750Z,6.52
2022-11-05T00:13:37.125Z,6.52
2022-11-05T00:16:22.599Z,6.56
2022-11-05T00:19:06.520Z,6.55
2022-11-05T00:21:52.426Z,6.57
2022-11-05T00:24:37.547Z,6.55
2022-11-05T00:27:04.775Z,6.56
2022-11-05T00:29:31.597Z,6.56
2022-11-05T00:31:58.321Z,6.58
2022-11-05T00:34:25.082Z,6.60
2022-11-05T00:36:51.770Z,6.54
2022-11-05T00:39:18.485Z,6.62
2022-11-05T00:42:05.068Z,6.58
2022-11-05T00:44:50.164Z,6.64
2022-11-05T00:47:35.613Z,6.68
2022-11-05T00:50:02.280Z,6.71
2022-11-05T00:52:47.475Z,6.72
2022-11-05T00:55:14.123Z,6.66
2022-11-05T00:57:40.789Z,6.71
2022-11-05T01:00:08.108Z,6.72
2022-11-05T01:02:34.906Z,6.73
2022-11-05T01:05:01.642Z,6.75
2022-11-05T01:07:28.315Z,6.77
2022-11-05T01:09:54.929Z,6.78
2022-11-05T01:12:21.941Z,6.80
2022-11-05T01:14:48.606Z,6.81
2022-11-05T01:17:15.199Z,6.82
2022-11-05T01:19:41.874Z,6.82
2022-11-05T01:22:08.603Z,6.84
2022-11-05T01:24:35.295Z,6.84
2022-11-05T01:27:01.907Z,6.86
2022-11-05T01:29:28.537Z,6.86
2022-11-05T01:31:55.100Z,6.88
2022-11-05T01:34:21.733Z,6.88
2022-11-05T01:36:48.403Z,6.87
2022-11-05T01:39:15.241Z,6.87
2022-11-05T01:41:41.986Z,6.89
2022-11-05T01:44:47.984Z,6.88
2022-11-05T01:47:53.657Z,6.88
2022-11-05T01:50:26.329Z,6.88
2022-11-05T01:52:57.174Z,6.87
2022-11-05T01:55:26.765Z,6.87
2022-11-05T01:57:57.775Z,6.90
2022-11-05T02:00:24.546Z,6.90
2022-11-05T02:02:51.310Z,6.92
2022-11-05T02:05:18.026Z,6.95
2022-11-05T02:07:47.314Z,6.91
2022-11-05T02:10:17.988Z,6.93
2022-11-05T02:12:47.885Z,6.96
2022-11-05T02:15:45.788Z,6.96
2022-11-05T02:18:30.552Z,6.96
2022-11-05T02:21:21.290Z,6.96
2022-11-05T02:24:19.736Z,6.97
2022-11-05T02:26:49.107Z,6.96
2022-11-05T02:29:38.800Z,6.96
2022-11-05T02:32:36.382Z,6.99
2022-11-05T02:35:27.344Z,6.99
2022-11-05T02:38:06.465Z,6.98
2022-11-05T02:40:44.111Z,6.99
2022-11-05T02:43:17.785Z,7.01
2022-11-05T02:46:16.532Z,7.01
2022-11-05T02:48:50.294Z,7.00
2022-11-05T02:51:26.749Z,7.01
2022-11-05T02:54:28.998Z,7.03
2022-11-05T02:56:58.099Z,7.03
2022-11-05T02:59:24.681Z,7.04
2022-11-05T03:01:52.042Z,7.07
2022-11-05T03:04:22.317Z,7.08
2022-11-05T03:07:07.435Z,7.09
2022-11-05T03:09:59.631Z,7.10
2022-11-05T03:12:29.117Z,7.11
2022-11-05T03:15:08.088Z,7.13
2022-11-05T03:18:09.668Z,7.07
2022-11-05T03:20:45.206Z,7.08
2022-11-05T03:23:22.016Z,7.12
2022-11-05T03:25:57.103Z,7.13
2022-11-05T03:28:28.019Z,7.16
2022-11-05T03:30:57.717Z,7.18
2022-11-05T03:33:29.047Z,7.12
2022-11-05T03:36:00.456Z,7.18
2022-11-05T03:38:35.608Z,7.19
2022-11-05T03:41:06.752Z,7.20
2022-11-05T03:43:38.190Z,7.21
2022-11-05T03:46:29.776Z,7.25
2022-11-05T03:49:01.204Z,7.26
2022-11-05T03:51:41.728Z,7.26
2022-11-05T03:54:09.723Z,7.28
2022-11-05T03:57:01.334Z,7.30
2022-11-05T03:59:32.605Z,7.31
2022-11-05T04:01:59.340Z,7.30
2022-11-05T04:04:26.056Z,7.33
2022-11-05T04:07:10.950Z,7.34
2022-11-05T04:09:56.133Z,7.37
2022-11-05T04:12:40.824Z,7.36
2022-11-05T04:15:08.088Z,7.30
2022-11-05T04:17:34.607Z,7.35
2022-11-05T04:20:19.862Z,7.38
2022-11-05T04:23:04.872Z,7.40
2022-11-05T04:25:31.587Z,7.39
2022-11-05T04:28:00.451Z,7.42
2022-11-05T04:30:27.708Z,7.34
2022-11-05T04:33:03.175Z,7.32
2022-11-05T04:35:37.447Z,7.39
2022-11-05T04:38:11.944Z,7.41
2022-11-05T04:40:42.248Z,7.44
2022-11-05T04:43:14.858Z,7.44
2022-11-05T04:45:42.083Z,7.45
2022-11-05T04:48:08.843Z,7.46
2022-11-05T04:50:35.578Z,7.48
2022-11-05T04:53:02.235Z,7.44
2022-11-05T04:55:28.776Z,7.45
2022-11-05T04:57:55.540Z,7.48
2022-11-05T05:00:23.414Z,7.49
2022-11-05T05:02:50.434Z,7.51
2022-11-05T05:05:17.198Z,7.51
2022-11-05T05:07:43.873Z,7.55
2022-11-05T05:10:11.380Z,7.55
2022-11-05T05:12:37.923Z,7.55
2022-11-05T05:15:05.242Z,7.47
2022-11-05T05:17:31.813Z,7.53
2022-11-05T05:20:17.075Z,7.55
2022-11-05T05:22:43.620Z,7.57
2022-11-05T05:25:10.137Z,7.60
2022-11-05T05:27:36.716Z,7.55
2022-11-05T05:30:03.549Z,7.62
2022-11-05T05:32:30.100Z,7.56
2022-11-05T05:34:56.705Z,7.60
2022-11-05T05:37:23.389Z,7.62
2022-11-05T05:39:49.938Z,7.63
2022-11-05T05:42:16.507Z,7.64
2022-11-05T05:44:43.089Z,7.63
2022-11-05T05:47:09.616Z,7.62
2022-11-05T05:49:36.175Z,7.63
2022-11-05T05:52:03.065Z,7.65
2022-11-05T05:54:33.442Z,7.61
2022-11-05T05:57:01.873Z,7.63
2022-11-05T05:59:28.415Z,7.66
2022-11-05T06:01:55.203Z,7.64
2022-11-05T06:04:21.919Z,7.62
2022-11-05T06:06:48.523Z,7.65
2022-11-05T06:09:15.531Z,7.61
2022-11-05T06:11:42.221Z,7.66
2022-11-05T06:14:13.128Z,7.68
2022-11-05T06:16:40.444Z,7.70
2022-11-05T06:19:07.837Z,7.71
2022-11-05T06:21:34.850Z,7.71
2022-11-05T06:24:02.469Z,7.72
2022-11-05T06:26:29.351Z,7.71
2022-11-05T06:28:56.029Z,7.72
2022-11-05T06:31:23.214Z,7.73
2022-11-05T06:33:49.778Z,7.74
2022-11-05T06:36:18.257Z,7.73
2022-11-05T06:38:45.027Z,7.76
2022-11-05T06:41:11.562Z,7.76
2022-11-05T06:43:38.655Z,7.78
2022-11-05T06:46:05.750Z,7.78
2022-11-05T06:48:32.352Z,7.77
2022-11-05T06:50:58.899Z,7.76
2022-11-05T06:53:28.469Z,7.78
2022-11-05T06:55:55.071Z,7.61
2022-11-05T06:58:21.658Z,7.71
2022-11-05T07:00:48.352Z,7.71
2022-11-05T07:03:15.247Z,7.74
2022-11-05T07:05:46.419Z,7.75
2022-11-05T07:08:13.011Z,7.74
2022-11-05T07:10:39.731Z,7.78
2022-11-05T07:13:08.324Z,7.69
2022-11-05T07:15:36.614Z,7.75
2022-11-05T07:18:03.758Z,7.77
2022-11-05T07:20:33.806Z,7.76
2022-11-05T07:23:05.282Z,7.75
2022-11-05T07:25:33.295Z,7.76
2022-11-05T07:28:00.305Z,7.79
2022-11-05T07:30:27.262Z,7.79
2022-11-05T07:32:54.004Z,7.73
2022-11-05T07:35:20.881Z,7.76
2022-11-05T07:37:49.762Z,7.79
2022-11-05T07:40:19.337Z,7.80
2022-11-05T07:42:50.988Z,7.78
2022-11-05T07:45:17.759Z,7.75
2022-11-05T07:47:49.216Z,7.76
2022-11-05T07:50:17.906Z,7.76
2022-11-05T07:52:45.181Z,7.78
2022-11-05T07:55:13.171Z,7.94
2022-11-05T07:57:44.853Z,7.91
2022-11-05T08:00:14.243Z,7.92
2022-11-05T08:02:42.075Z,7.91
2022-11-05T08:05:09.956Z,7.93
2022-11-05T08:07:36.517Z,8.26
2022-11-05T08:10:06.088Z,8.01
2022-11-05T08:12:32.719Z,7.93
2022-11-05T08:14:59.269Z,7.97
2022-11-05T08:17:26.047Z,7.99
2022-11-05T08:19:52.836Z,7.98
2022-11-05T08:22:19.488Z,7.99
2022-11-05T08:24:46.101Z,8.01
2022-11-05T08:27:12.750Z,7.85
2022-11-05T08:29:39.424Z,7.94
2022-11-05T08:32:06.007Z,7.97
2022-11-05T08:34:32.556Z,8.03
2022-11-05T08:37:01.269Z,7.90
2022-11-05T08:39:27.909Z,7.95
2022-11-05T08:41:54.770Z,7.87
2022-11-05T08:44:21.329Z,7.91
2022-11-05T08:46:47.976Z,7.91
2022-11-05T08:49:14.555Z,7.96
2022-11-05T08:51:41.096Z,7.97
2022-11-05T08:54:07.758Z,8.03
2022-11-05T08:56:34.525Z,7.90
2022-11-05T08:59:01.129Z,7.86
2022-11-05T09:01:27.846Z,7.75
2022-11-05T09:03:54.592Z,7.97
2022-11-05T09:06:24.306Z,8.00
2022-11-05T09:08:50.806Z,8.09
2022-11-05T09:11:18.262Z,8.03
2022-11-05T09:13:44.870Z,8.10
2022-11-05T09:16:20.810Z,8.03
2022-11-05T09:18:47.405Z,8.32
2022-11-05T09:21:13.994Z,8.28
2022-11-05T09:23:40.799Z,8.18
2022-11-05T09:26:07.512Z,8.16
2022-11-05T09:28:34.074Z,8.16
2022-11-05T09:31:00.904Z,7.60
2022-11-05T09:33:28.033Z,7.91
2022-11-05T09:35:54.653Z,7.86
2022-11-05T09:38:21.236Z,7.96
2022-11-05T09:40:57.045Z,8.04
2022-11-05T09:43:31.910Z,7.91
2022-11-05T09:46:03.619Z,7.87
2022-11-05T09:48:32.726Z,8.06
2022-11-05T09:50:59.632Z,7.76
2022-11-05T09:53:26.351Z,7.71
2022-11-05T09:55:58.700Z,7.66
2022-11-05T09:58:29.020Z,7.92
2022-11-05T10:00:56.662Z,8.01
2022-11-05T10:03:25.112Z,8.17
2022-11-05T10:05:53.789Z,7.76
2022-11-05T10:08:29.421Z,8.07
2022-11-05T10:11:02.457Z,8.20
2022-11-05T10:13:35.195Z,8.26
2022-11-05T10:16:13.445Z,8.13
2022-11-05T10:18:42.941Z,7.94
2022-11-05T10:21:17.231Z,8.02
2022-11-05T10:23:45.353Z,8.14
2022-11-05T10:26:16.056Z,8.20
2022-11-05T10:28:42.572Z,8.11
2022-11-05T10:31:14.432Z,8.44
2022-11-05T10:33:51.570Z,8.17
2022-11-05T10:36:28.057Z,8.19
2022-11-05T10:39:01.522Z,8.31
2022-11-05T10:41:50.322Z,8.31
2022-11-05T10:44:47.554Z,8.37
2022-11-05T10:47:29.344Z,8.37
2022-11-05T10:50:05.229Z,8.41
2022-11-05T10:52:51.983Z,8.29
2022-11-05T10:55:21.648Z,8.38
2022-11-05T10:57:51.503Z,8.43
2022-11-05T11:00:21.504Z,8.48
2022-11-05T11:02:58.457Z,8.49
2022-11-05T11:05:26.695Z,8.45
2022-11-05T11:07:56.623Z,8.31
2022-11-05T11:10:24.107Z,8.32
2022-11-05T11:12:51.541Z,8.42
2022-11-05T11:15:21.254Z,8.38
2022-11-05T11:17:48.018Z,8.44
2022-11-05T11:20:32.982Z,8.59
2022-11-05T11:23:14.394Z,8.48
2022-11-05T11:25:50.800Z,8.65
2022-11-05T11:28:25.253Z,8.55
2022-11-05T11:31:15.763Z,8.62
2022-11-05T11:33:53.246Z,8.66
2022-11-05T11:36:26.217Z,8.73
2022-11-05T11:39:00.018Z,8.72
2022-11-05T11:41:29.827Z,8.53
2022-11-05T11:44:12.204Z,8.43
2022-11-05T11:46:39.254Z,8.50
2022-11-05T11:49:07.144Z,8.59
2022-11-05T11:51:40.474Z,8.57
2022-11-05T11:54:20.402Z,8.71
2022-11-05T11:56:48.456Z,8.67
2022-11-05T11:59:46.618Z,8.69
2022-11-05T12:02:25.037Z,8.71
2022-11-05T12:05:03.541Z,8.71
2022-11-05T12:07:45.584Z,8.85
2022-11-05T12:10:49.433Z,8.77
2022-11-05T12:13:18.990Z,8.89
2022-11-05T12:15:57.514Z,8.85
2022-11-05T12:18:26.973Z,8.54
2022-11-05T12:21:02.610Z,8.77
2022-11-05T12:23:53.773Z,8.70
2022-11-05T12:26:34.058Z,8.78
2022-11-05T12:29:34.431Z,8.95
2022-11-05T12:32:49.657Z,8.96
2022-11-05T12:35:29.926Z,9.01
2022-11-05T12:38:35.177Z,9.11
2022-11-05T12:41:30.283Z,9.03
2022-11-05T12:44:06.591Z,9.11
2022-11-05T12:47:09.937Z,9.15
2022-11-05T12:49:36.601Z,8.87
2022-11-05T12:52:05.835Z,8.82
2022-11-05T12:54:51.072Z,8.80
2022-11-05T12:57:19.974Z,8.73
2022-11-05T12:59:52.308Z,8.81
2022-11-05T13:02:34.522Z,9.01
2022-11-05T13:05:04.593Z,8.70
2022-11-05T13:07:39.417Z,8.74
2022-11-05T13:10:26.213Z,8.71
2022-11-05T13:13:13.667Z,8.56
2022-11-05T13:15:49.473Z,8.74
2022-11-05T13:18:22.391Z,8.85
2022-11-05T13:20:51.074Z,8.89
2022-11-05T13:23:32.471Z,9.05
2022-11-05T13:26:19.522Z,8.98
2022-11-05T13:28:53.018Z,8.83
2022-11-05T13:31:27.498Z,9.04
2022-11-05T13:33:55.339Z,9.03
2022-11-05T13:36:46.148Z,8.75
2022-11-05T13:39:30.725Z,9.00
2022-11-05T13:42:19.063Z,9.09
2022-11-05T13:45:08.515Z,9.05
2022-11-05T13:47:53.732Z,9.14
2022-11-05T13:50:50.844Z,9.16
2022-11-05T13:53:20.267Z,9.21
2022-11-05T13:55:57.663Z,9.43
2022-11-05T13:58:49.907Z,9.21
2022-11-05T14:01:28.716Z,9.13
2022-11-05T14:03:56.689Z,9.16
2022-11-05T14:06:31.026Z,9.18
2022-11-05T14:09:09.349Z,9.23
2022-11-05T14:11:44.167Z,9.24
2022-11-05T14:14:19.713Z,9.26
2022-11-05T14:16:53.873Z,9.26
2022-11-05T14:19:20.391Z,9.23
2022-11-05T14:21:54.445Z,9.26
2022-11-05T14:24:24.139Z,9.28
2022-11-05T14:27:02.817Z,9.34
2022-11-05T14:29:42.594Z,9.21
2022-11-05T14:32:18.709Z,9.30
2022-11-05T14:35:15.657Z,9.29
2022-11-05T14:37:56.318Z,9.24
2022-11-05T14:40:29.177Z,9.30
2022-11-05T14:42:58.358Z,9.30
2022-11-05T14:45:29.531Z,9.31
2022-11-05T14:48:22.645Z,9.32
2022-11-05T14:50:49.776Z,9.29
2022-11-05T14:53:35.151Z,9.31
2022-11-05T14:56:08.194Z,9.33
2022-11-05T14:58:39.954Z,10.01
2022-11-05T15:01:09.462Z,9.59
2022-11-05T15:03:46.490Z,9.48
2022-11-05T15:06:36.091Z,9.44
2022-11-05T15:09:05.601Z,9.41
2022-11-05T15:11:39.682Z,9.42
2022-11-05T15:14:40.412Z,9.41
2022-11-05T15:17:22.502Z,9.39
2022-11-05T15:19:51.160Z,9.39
2022-11-05T15:22:27.098Z,9.39
2022-11-05T15:24:54.156Z,9.39
2022-11-05T15:27:39.184Z,9.39
2022-11-05T15:30:21.266Z,9.37
2022-11-05T15:32:48.109Z,9.36
2022-11-05T15:35:20.862Z,9.30
2022-11-05T15:37:54.527Z,9.09
2022-11-05T15:40:26.563Z,8.81
2022-11-05T15:43:19.631Z,8.71
2022-11-05T15:46:06.024Z,8.75
2022-11-05T15:48:33.778Z,8.81
2022-11-05T15:51:00.773Z,8.74
2022-11-05T15:54:16.092Z,9.02
2022-11-05T15:56:52.828Z,8.79
2022-11-05T15:59:21.460Z,8.80
2022-11-05T16:01:54.056Z,8.77
2022-11-05T16:04:28.481Z,8.84
2022-11-05T16:06:59.718Z,8.85
2022-11-05T16:09:29.329Z,8.85
2022-11-05T16:12:12.767Z,8.86
2022-11-05T16:14:39.869Z,8.84
2022-11-05T16:17:22.204Z,8.85
2022-11-05T16:19:50.339Z,8.85
2022-11-05T16:22:17.518Z,8.83
2022-11-05T16:24:45.274Z,8.82
2022-11-05T16:27:19.304Z,8.82
2022-11-05T16:29:55.494Z,8.79
2022-11-05T16:32:29.856Z,8.76
2022-11-05T16:34:58.662Z,8.79
2022-11-05T16:37:27.024Z,8.75
2022-11-05T16:39:54.021Z,8.77
2022-11-05T16:42:23.640Z,8.76
2022-11-05T16:44:57.424Z,8.75
2022-11-05T16:47:26.372Z,8.75
2022-11-05T16:49:53.010Z,8.73
2022-11-05T16:52:19.530Z,8.73
2022-11-05T16:54:46.078Z,8.73
2022-11-05T16:57:24.256Z,8.72
2022-11-05T16:59:50.854Z,8.72
2022-11-05T17:02:17.562Z,8.71
2022-11-05T17:04:44.645Z,8.70
2022-11-05T17:07:11.129Z,8.68
2022-11-05T17:09:37.873Z,8.66
2022-11-05T17:12:04.588Z,8.62
2022-11-05T17:14:31.089Z,8.52
2022-11-05T17:17:00.699Z,9.05
2022-11-05T17:19:27.495Z,8.78
2022-11-05T17:21:54.027Z,8.69
2022-11-05T17:24:20.559Z,8.44
2022-11-05T17:26:47.232Z,8.48
2022-11-05T17:29:13.788Z,8.51
2022-11-05T17:31:40.864Z,8.52
2022-11-05T17:34:07.548Z,8.36
2022-11-05T17:36:34.116Z,8.39
2022-11-05T17:39:00.709Z,8.46
2022-11-05T17:41:27.350Z,8.48
2022-11-05T17:43:56.437Z,8.48
2022-11-05T17:46:24.219Z,8.48
2022-11-05T17:48:51.499Z,8.90
2022-11-05T17:51:19.351Z,8.67
2022-11-05T17:53:47.299Z,8.61
2022-11-05T17:56:23.592Z,8.58
2022-11-05T17:58:56.106Z,8.55
2022-11-05T18:01:27.238Z,8.53
2022-11-05T18:03:54.223Z,8.51
2022-11-05T18:06:21.270Z,8.48
2022-11-05T18:08:47.862Z,8.48
2022-11-05T18:11:14.587Z,8.48
2022-11-05T18:13:41.136Z,8.46
2022-11-05T18:16:07.957Z,8.43
2022-11-05T18:18:34.548Z,8.44
2022-11-05T18:21:01.397Z,8.44
2022-11-05T18:23:27.912Z,8.43
2022-11-05T18:25:54.514Z,8.43
2022-11-05T18:28:21.030Z,8.41
2022-11-05T18:30:47.655Z,8.42
2022-11-05T18:33:14.506Z,8.42
2022-11-05T18:35:44.836Z,8.41
2022-11-05T18:38:11.908Z,8.40
2022-11-05T18:40:38.568Z,8.40
2022-11-05T18:43:05.154Z,8.40
2022-11-05T18:45:33.346Z,8.39
2022-11-05T18:48:03.871Z,8.38
2022-11-05T18:50:30.684Z,8.39
2022-11-05T18:52:57.603Z,8.39
2022-11-05T18:55:24.783Z,8.39
2022-11-05T18:57:51.457Z,8.36
2022-11-05T19:00:18.278Z,8.36
2022-11-05T19:02:45.122Z,8.35
2022-11-05T19:05:28.477Z,8.31
2022-11-05T19:07:55.817Z,8.33
2022-11-05T19:10:22.498Z,8.34
2022-11-05T19:12:49.280Z,8.33
2022-11-05T19:15:15.845Z,8.31
2022-11-05T19:17:42.667Z,8.32
2022-11-05T19:20:09.679Z,8.32
2022-11-05T19:22:36.260Z,8.31
2022-11-05T19:25:03.463Z,8.30
2022-11-05T19:27:30.030Z,8.29
2022-11-05T19:29:56.712Z,8.29
2022-11-05T19:32:24.047Z,8.29
2022-11-05T19:34:50.592Z,8.29
2022-11-05T19:37:17.112Z,8.27
2022-11-05T19:39:46.827Z,8.27
2022-11-05T19:42:13.538Z,8.25
2022-11-05T19:44:40.856Z,8.23
2022-11-05T19:47:07.416Z,8.24
2022-11-05T19:49:34.034Z,8.24
2022-11-05T19:52:00.623Z,8.22
2022-11-05T19:54:27.160Z,8.21
2022-11-05T19:56:53.709Z,8.21
2022-11-05T19:59:20.375Z,8.21
2022-11-05T20:01:47.037Z,8.19
2022-11-05T20:04:13.709Z,8.18
2022-11-05T20:06:40.794Z,8.18
2022-11-05T20:09:27.200Z,8.19
2022-11-05T20:11:57.028Z,8.18
2022-11-05T20:14:25.232Z,8.15
2022-11-05T20:16:52.820Z,8.15
2022-11-05T20:19:21.339Z,8.15
2022-11-05T20:21:48.314Z,8.13
2022-11-05T20:24:25.323Z,8.11
2022-11-05T20:26:55.886Z,8.11
2022-11-05T20:29:23.329Z,8.09
2022-11-05T20:31:50.486Z,8.08
2022-11-05T20:34:17.138Z,8.07
2022-11-05T20:36:43.698Z,8.07
2022-11-05T20:39:13.143Z,8.04
2022-11-05T20:41:39.844Z,8.02
2022-11-05T20:44:06.506Z,8.00
2022-11-05T20:46:33.955Z,7.97
2022-11-05T20:49:00.473Z,7.95
2022-11-05T20:51:27.058Z,7.93
2022-11-05T20:53:55.915Z,7.91
2022-11-05T20:56:25.380Z,8.54
2022-11-05T20:58:52.897Z,8.16
2022-11-05T21:01:19.935Z,8.06
2022-11-05T21:03:47.751Z,7.97
2022-11-05T21:06:15.423Z,7.90
2022-11-05T21:08:42.804Z,7.86
2022-11-05T21:11:10.736Z,7.82
2022-11-05T21:13:37.896Z,7.77
2022-11-05T21:16:07.095Z,7.74
2022-11-05T21:18:35.221Z,7.70
2022-11-05T21:21:06.811Z,7.66
2022-11-05T21:23:33.314Z,7.59
2022-11-05T21:26:07.333Z,7.57
2022-11-05T21:28:34.781Z,7.54
2022-11-05T21:31:02.488Z,7.52
2022-11-05T21:33:29.624Z,7.49
2022-11-05T21:35:56.786Z,7.46
2022-11-05T21:38:23.463Z,7.43
2022-11-05T21:40:49.996Z,7.39
2022-11-05T21:43:16.979Z,7.35
2022-11-05T21:45:45.232Z,7.33
2022-11-05T21:48:15.094Z,7.28
2022-11-05T21:51:00.949Z,7.26
2022-11-05T21:53:46.308Z,7.21
2022-11-05T21:56:42.865Z,7.13
2022-11-05T21:59:33.424Z,7.09
2022-11-05T22:02:03.012Z,7.04
2022-11-05T22:04:41.380Z,7.03
2022-11-05T22:07:09.460Z,7.00
2022-11-05T22:09:36.461Z,6.96
2022-11-05T22:12:03.861Z,6.96
2022-11-05T22:14:30.940Z,6.95
2022-11-05T22:16:58.350Z,6.92
2022-11-05T22:19:25.452Z,6.88
2022-11-05T22:21:52.248Z,6.84
2022-11-05T22:24:19.307Z,6.82
2022-11-05T22:26:46.424Z,6.78
2022-11-05T22:29:13.322Z,6.76
2022-11-05T22:31:40.254Z,6.74
2022-11-05T22:34:07.798Z,6.66
2022-11-05T22:36:34.749Z,6.64
2022-11-05T22:39:02.190Z,6.59
2022-11-05T22:41:28.977Z,6.61
2022-11-05T22:43:55.876Z,6.57
2022-11-05T22:46:24.645Z,6.56
2022-11-05T22:48:52.320Z,6.53
2022-11-05T22:51:22.156Z,6.50
2022-11-05T22:53:49.704Z,6.48
2022-11-05T22:56:18.937Z,6.44
2022-11-05T22:58:45.871Z,6.39
2022-11-05T23:01:14.216Z,6.35
2022-11-05T23:03:43.189Z,6.33
2022-11-05T23:06:36.699Z,6.29
2022-11-05T23:09:24.845Z,6.25
2022-11-05T23:11:53.689Z,6.19
2022-11-05T23:14:20.375Z,6.17
2022-11-05T23:17:05.608Z,6.17
2022-11-05T23:19:50.462Z,6.09
2022-11-05T23:22:38.997Z,6.01
2022-11-05T23:25:07.455Z,5.97
2022-11-05T23:27:36.523Z,5.93
2022-11-05T23:30:08.170Z,5.93
2022-11-05T23:32:35.843Z,5.87
2022-11-05T23:35:03.253Z,5.88
2022-11-05T23:37:49.506Z,5.85
2022-11-05T23:40:21.963Z,5.79
2022-11-05T23:43:07.981Z,5.76
2022-11-05T23:45:56.574Z,5.76
2022-11-05T23:48:26.232Z,5.72
2022-11-05T23:50:55.794Z,5.70
2022-11-05T23:53:23.237Z,5.70
2022-11-05T23:55:50.337Z,5.66
2022-11-05T23:58:17.736Z,5.63
